ENST/SSJ METAR and TAF weather

Enter ICAO airport designator
Station Type Date Time Source
ENST METAR 2021/09/23 18:20 UTC NOAA

ENST 231820Z VRB02KT 9999 VCSH FEW025 SCT040 08/07 Q0994 RMK WIND 300FT 04001KT


Station Type Date Time Source
ENST Decoded METAR 2021/09/23 18:20 UTC NOAA

Sandnessjoen / Stokka, Norway (ENST) 65-58N 012-28E 17M
Sep 23, 2021 - 02:20 PM EDT / 2021.09.23 1820 UTC
Wind: Variable at 2 MPH (2 KT):0
Visibility: greater than 7 mile(s):0
Sky conditions: partly cloudy
Weather: showers in the vicinity
Temperature: 46 F (8 C)
Dew Point: 44 F (7 C)
Relative Humidity: 93%
Pressure (altimeter): 29.35 in. Hg (0994 hPa)
ob: ENST 231820Z VRB02KT 9999 VCSH FEW025 SCT040 08/07 Q0994 RMK WIND 300FT 04001KT
cycle: 18

Station Type Date Time Source
ENST TAF UTC NOAA

Error!

Example: see airport list